sensor_id;sensor_type;location;lat;lon;timestamp;temperature;humidity
18335;DHT22;9293;49.524;10.964;2023-06-24T00:00:06;16.50;99.90
18335;DHT22;9293;49.524;10.964;2023-06-24T00:02:36;16.40;99.90
18335;DHT22;9293;49.524;10.964;2023-06-24T00:05:05;16.40;99.90
18335;DHT22;9293;49.524;10.964;2023-06-24T00:07:34;16.40;99.90
18335;DHT22;9293;49.524;10.964;2023-06-24T00:10:13;16.40;99.90
18335;DHT22;9293;49.524;10.964;2023-06-24T00:12:44;16.40;99.90
18335;DHT22;9293;49.524;10.964;2023-06-24T00:15:12;16.40;99.90
18335;DHT22;9293;49.524;10.964;2023-06-24T00:17:41;16.30;99.90
18335;DHT22;9293;49.524;10.964;2023-06-24T00:20:10;16.30;99.90
18335;DHT22;9293;49.524;10.964;2023-06-24T00:22:38;16.20;99.90
18335;DHT22;9293;49.524;10.964;2023-06-24T00:25:12;16.20;99.90
18335;DHT22;9293;49.524;10.964;2023-06-24T00:27:40;16.10;99.90
18335;DHT22;9293;49.524;10.964;2023-06-24T00:30:09;16.10;99.90
18335;DHT22;9293;49.524;10.964;2023-06-24T00:32:37;16.10;99.90
18335;DHT22;9293;49.524;10.964;2023-06-24T00:35:05;16.00;99.90
18335;DHT22;9293;49.524;10.964;2023-06-24T00:37:38;16.00;99.90
18335;DHT22;9293;49.524;10.964;2023-06-24T00:40:10;15.90;99.90
18335;DHT22;9293;49.524;10.964;2023-06-24T00:42:39;15.80;99.90
18335;DHT22;9293;49.524;10.964;2023-06-24T00:45:07;15.70;99.90
18335;DHT22;9293;49.524;10.964;2023-06-24T00:47:38;15.60;99.90
18335;DHT22;9293;49.524;10.964;2023-06-24T00:50:07;15.70;99.90
18335;DHT22;9293;49.524;10.964;2023-06-24T00:52:35;15.70;99.90
18335;DHT22;9293;49.524;10.964;2023-06-24T00:55:05;15.70;99.90
18335;DHT22;9293;49.524;10.964;2023-06-24T00:57:34;15.60;99.90
18335;DHT22;9293;49.524;10.964;2023-06-24T01:00:05;15.60;99.90
18335;DHT22;9293;49.524;10.964;2023-06-24T01:02:41;15.50;99.90
18335;DHT22;9293;49.524;10.964;2023-06-24T01:05:10;15.50;99.90
18335;DHT22;9293;49.524;10.964;2023-06-24T01:07:39;15.40;99.90
18335;DHT22;9293;49.524;10.964;2023-06-24T01:10:08;15.40;99.90
18335;DHT22;9293;49.524;10.964;2023-06-24T01:12:37;15.40;99.90
18335;DHT22;9293;49.524;10.964;2023-06-24T01:15:08;15.40;99.90
18335;DHT22;9293;49.524;10.964;2023-06-24T01:17:45;15.40;99.90
18335;DHT22;9293;49.524;10.964;2023-06-24T01:20:22;15.40;99.90
18335;DHT22;9293;49.524;10.964;2023-06-24T01:33:15;15.10;99.90
18335;DHT22;9293;49.524;10.964;2023-06-24T01:35:47;15.10;99.90
18335;DHT22;9293;49.524;10.964;2023-06-24T01:38:21;15.00;99.90
18335;DHT22;9293;49.524;10.964;2023-06-24T01:40:50;15.00;99.90
18335;DHT22;9293;49.524;10.964;2023-06-24T01:43:19;15.00;99.90
18335;DHT22;9293;49.524;10.964;2023-06-24T01:45:50;14.90;99.90
18335;DHT22;9293;49.524;10.964;2023-06-24T01:48:22;14.90;99.90
18335;DHT22;9293;49.524;10.964;2023-06-24T01:50:58;14.90;99.90
18335;DHT22;9293;49.524;10.964;2023-06-24T01:53:26;14.80;99.90
18335;DHT22;9293;49.524;10.964;2023-06-24T01:55:57;14.70;99.90
18335;DHT22;9293;49.524;10.964;2023-06-24T01:58:26;14.60;99.90
18335;DHT22;9293;49.524;10.964;2023-06-24T02:00:59;14.60;99.90
18335;DHT22;9293;49.524;10.964;2023-06-24T02:03:32;14.60;99.90
18335;DHT22;9293;49.524;10.964;2023-06-24T02:06:03;14.70;99.90
18335;DHT22;9293;49.524;10.964;2023-06-24T02:08:32;14.70;99.90
18335;DHT22;9293;49.524;10.964;2023-06-24T02:11:02;14.60;99.90
18335;DHT22;9293;49.524;10.964;2023-06-24T02:13:31;14.40;99.90
18335;DHT22;9293;49.524;10.964;2023-06-24T02:16:03;14.50;99.90
18335;DHT22;9293;49.524;10.964;2023-06-24T02:18:34;14.50;99.90
18335;DHT22;9293;49.524;10.964;2023-06-24T02:21:03;14.50;99.90
18335;DHT22;9293;49.524;10.964;2023-06-24T02:23:32;14.60;99.90
18335;DHT22;9293;49.524;10.964;2023-06-24T02:26:04;14.60;99.90
18335;DHT22;9293;49.524;10.964;2023-06-24T02:28:34;14.50;99.90
18335;DHT22;9293;49.524;10.964;2023-06-24T02:31:02;14.50;99.90
18335;DHT22;9293;49.524;10.964;2023-06-24T02:33:31;14.50;99.90
18335;DHT22;9293;49.524;10.964;2023-06-24T02:35:59;14.40;99.90
18335;DHT22;9293;49.524;10.964;2023-06-24T02:38:28;14.40;99.90
18335;DHT22;9293;49.524;10.964;2023-06-24T02:40:56;14.40;99.90
18335;DHT22;9293;49.524;10.964;2023-06-24T02:43:25;14.30;99.90
18335;DHT22;9293;49.524;10.964;2023-06-24T02:45:54;14.20;99.90
18335;DHT22;9293;49.524;10.964;2023-06-24T02:48:22;14.30;99.90
18335;DHT22;9293;49.524;10.964;2023-06-24T02:50:51;14.30;99.90
18335;DHT22;9293;49.524;10.964;2023-06-24T02:53:19;14.30;99.90
18335;DHT22;9293;49.524;10.964;2023-06-24T02:55:48;14.20;99.90
18335;DHT22;9293;49.524;10.964;2023-06-24T02:58:17;14.00;99.90
18335;DHT22;9293;49.524;10.964;2023-06-24T03:01:00;14.00;99.90
18335;DHT22;9293;49.524;10.964;2023-06-24T03:03:32;14.00;99.90
18335;DHT22;9293;49.524;10.964;2023-06-24T03:06:04;14.00;99.90
18335;DHT22;9293;49.524;10.964;2023-06-24T03:08:34;14.00;99.90
18335;DHT22;9293;49.524;10.964;2023-06-24T03:11:02;14.00;99.90
18335;DHT22;9293;49.524;10.964;2023-06-24T03:13:32;13.90;99.90
18335;DHT22;9293;49.524;10.964;2023-06-24T03:16:21;13.90;99.90
18335;DHT22;9293;49.524;10.964;2023-06-24T03:18:57;14.00;99.90
18335;DHT22;9293;49.524;10.964;2023-06-24T03:21:26;14.00;99.90
18335;DHT22;9293;49.524;10.964;2023-06-24T03:24:06;13.90;99.90
18335;DHT22;9293;49.524;10.964;2023-06-24T03:26:36;13.80;99.90
18335;DHT22;9293;49.524;10.964;2023-06-24T03:29:06;13.90;99.90
18335;DHT22;9293;49.524;10.964;2023-06-24T03:31:58;13.90;99.90
18335;DHT22;9293;49.524;10.964;2023-06-24T03:34:27;14.00;99.90
18335;DHT22;9293;49.524;10.964;2023-06-24T03:36:55;13.90;99.90
18335;DHT22;9293;49.524;10.964;2023-06-24T03:39:24;13.80;99.90
18335;DHT22;9293;49.524;10.964;2023-06-24T03:41:53;13.90;99.90
18335;DHT22;9293;49.524;10.964;2023-06-24T03:44:21;13.90;99.90
18335;DHT22;9293;49.524;10.964;2023-06-24T03:46:49;13.90;99.90
18335;DHT22;9293;49.524;10.964;2023-06-24T03:49:17;13.90;99.90
18335;DHT22;9293;49.524;10.964;2023-06-24T03:51:47;13.90;99.90
18335;DHT22;9293;49.524;10.964;2023-06-24T03:54:15;14.00;99.90
18335;DHT22;9293;49.524;10.964;2023-06-24T03:56:44;13.90;99.90
18335;DHT22;9293;49.524;10.964;2023-06-24T03:59:12;13.90;99.90
18335;DHT22;9293;49.524;10.964;2023-06-24T04:01:40;13.90;99.90
18335;DHT22;9293;49.524;10.964;2023-06-24T04:04:09;14.00;99.90
18335;DHT22;9293;49.524;10.964;2023-06-24T04:06:38;14.00;99.90
18335;DHT22;9293;49.524;10.964;2023-06-24T04:09:06;14.10;99.90
18335;DHT22;9293;49.524;10.964;2023-06-24T04:11:36;14.10;99.90
18335;DHT22;9293;49.524;10.964;2023-06-24T04:14:04;14.20;99.90
18335;DHT22;9293;49.524;10.964;2023-06-24T04:16:35;14.20;99.90
18335;DHT22;9293;49.524;10.964;2023-06-24T04:19:03;14.20;99.90
18335;DHT22;9293;49.524;10.964;2023-06-24T04:21:31;14.20;99.90
18335;DHT22;9293;49.524;10.964;2023-06-24T04:23:59;14.30;99.90
18335;DHT22;9293;49.524;10.964;2023-06-24T04:26:28;14.30;99.90
18335;DHT22;9293;49.524;10.964;2023-06-24T04:28:56;14.40;99.90
18335;DHT22;9293;49.524;10.964;2023-06-24T04:31:25;14.30;99.90
18335;DHT22;9293;49.524;10.964;2023-06-24T04:33:53;14.30;99.90
18335;DHT22;9293;49.524;10.964;2023-06-24T04:36:22;14.40;99.90
18335;DHT22;9293;49.524;10.964;2023-06-24T04:38:50;14.50;99.90
18335;DHT22;9293;49.524;10.964;2023-06-24T04:41:18;14.50;99.90
18335;DHT22;9293;49.524;10.964;2023-06-24T04:43:47;14.60;99.90
18335;DHT22;9293;49.524;10.964;2023-06-24T04:46:15;14.70;99.90
18335;DHT22;9293;49.524;10.964;2023-06-24T04:48:46;14.80;99.90
18335;DHT22;9293;49.524;10.964;2023-06-24T04:51:15;14.90;99.90
18335;DHT22;9293;49.524;10.964;2023-06-24T04:53:44;15.00;99.90
18335;DHT22;9293;49.524;10.964;2023-06-24T04:56:14;15.20;99.90
18335;DHT22;9293;49.524;10.964;2023-06-24T04:58:42;15.20;99.90
18335;DHT22;9293;49.524;10.964;2023-06-24T05:01:10;15.20;99.90
18335;DHT22;9293;49.524;10.964;2023-06-24T05:03:38;15.30;99.90
18335;DHT22;9293;49.524;10.964;2023-06-24T05:06:08;15.40;99.90
18335;DHT22;9293;49.524;10.964;2023-06-24T05:08:36;15.50;99.90
18335;DHT22;9293;49.524;10.964;2023-06-24T05:11:04;15.60;99.90
18335;DHT22;9293;49.524;10.964;2023-06-24T05:13:33;15.70;99.90
18335;DHT22;9293;49.524;10.964;2023-06-24T05:16:01;15.70;99.90
18335;DHT22;9293;49.524;10.964;2023-06-24T05:18:29;15.80;99.90
18335;DHT22;9293;49.524;10.964;2023-06-24T05:20:57;15.90;99.90
18335;DHT22;9293;49.524;10.964;2023-06-24T05:23:25;16.00;99.90
18335;DHT22;9293;49.524;10.964;2023-06-24T05:25:53;16.10;99.90
18335;DHT22;9293;49.524;10.964;2023-06-24T05:28:22;16.20;99.90
18335;DHT22;9293;49.524;10.964;2023-06-24T05:30:50;16.30;99.90
18335;DHT22;9293;49.524;10.964;2023-06-24T05:33:18;16.40;99.90
18335;DHT22;9293;49.524;10.964;2023-06-24T05:35:46;16.50;99.90
18335;DHT22;9293;49.524;10.964;2023-06-24T05:38:14;16.60;99.90
18335;DHT22;9293;49.524;10.964;2023-06-24T05:40:42;16.70;99.90
18335;DHT22;9293;49.524;10.964;2023-06-24T05:43:10;16.80;99.90
18335;DHT22;9293;49.524;10.964;2023-06-24T05:45:39;16.90;99.90
18335;DHT22;9293;49.524;10.964;2023-06-24T05:48:07;17.00;99.90
18335;DHT22;9293;49.524;10.964;2023-06-24T05:50:35;17.00;99.90
18335;DHT22;9293;49.524;10.964;2023-06-24T05:53:03;17.10;99.90
18335;DHT22;9293;49.524;10.964;2023-06-24T05:55:31;17.20;99.90
18335;DHT22;9293;49.524;10.964;2023-06-24T05:58:00;17.20;99.90
18335;DHT22;9293;49.524;10.964;2023-06-24T06:00:28;17.30;99.90
18335;DHT22;9293;49.524;10.964;2023-06-24T06:02:56;17.40;99.90
18335;DHT22;9293;49.524;10.964;2023-06-24T06:05:24;17.50;99.90
18335;DHT22;9293;49.524;10.964;2023-06-24T06:07:53;17.70;99.90
18335;DHT22;9293;49.524;10.964;2023-06-24T06:10:21;17.80;99.90
18335;DHT22;9293;49.524;10.964;2023-06-24T06:12:49;17.90;99.90
18335;DHT22;9293;49.524;10.964;2023-06-24T06:15:17;18.10;99.90
18335;DHT22;9293;49.524;10.964;2023-06-24T06:17:46;18.20;99.90
18335;DHT22;9293;49.524;10.964;2023-06-24T06:20:14;18.30;99.90
18335;DHT22;9293;49.524;10.964;2023-06-24T06:22:42;18.50;99.90
18335;DHT22;9293;49.524;10.964;2023-06-24T06:25:10;18.60;99.90
18335;DHT22;9293;49.524;10.964;2023-06-24T06:27:38;18.90;99.90
18335;DHT22;9293;49.524;10.964;2023-06-24T06:30:07;19.10;99.90
18335;DHT22;9293;49.524;10.964;2023-06-24T06:32:35;19.30;99.90
18335;DHT22;9293;49.524;10.964;2023-06-24T06:35:03;19.30;99.90
18335;DHT22;9293;49.524;10.964;2023-06-24T06:37:31;19.40;99.90
18335;DHT22;9293;49.524;10.964;2023-06-24T06:39:59;19.60;99.90
18335;DHT22;9293;49.524;10.964;2023-06-24T06:42:29;19.80;99.90
18335;DHT22;9293;49.524;10.964;2023-06-24T06:44:57;20.20;99.90
18335;DHT22;9293;49.524;10.964;2023-06-24T06:47:25;20.40;99.90
18335;DHT22;9293;49.524;10.964;2023-06-24T06:49:53;20.70;99.90
18335;DHT22;9293;49.524;10.964;2023-06-24T06:52:21;20.80;99.90
18335;DHT22;9293;49.524;10.964;2023-06-24T06:54:50;21.10;99.90
18335;DHT22;9293;49.524;10.964;2023-06-24T06:57:18;21.20;99.90
18335;DHT22;9293;49.524;10.964;2023-06-24T06:59:46;21.40;99.90
18335;DHT22;9293;49.524;10.964;2023-06-24T07:02:14;21.70;99.90
18335;DHT22;9293;49.524;10.964;2023-06-24T07:04:42;21.80;99.90
18335;DHT22;9293;49.524;10.964;2023-06-24T07:07:10;22.00;99.90
18335;DHT22;9293;49.524;10.964;2023-06-24T07:09:43;22.20;99.90
18335;DHT22;9293;49.524;10.964;2023-06-24T07:12:14;22.30;99.90
18335;DHT22;9293;49.524;10.964;2023-06-24T07:14:42;22.30;99.90
18335;DHT22;9293;49.524;10.964;2023-06-24T07:17:10;22.40;99.90
18335;DHT22;9293;49.524;10.964;2023-06-24T07:19:38;22.50;99.90
18335;DHT22;9293;49.524;10.964;2023-06-24T07:22:07;22.40;99.90
18335;DHT22;9293;49.524;10.964;2023-06-24T07:24:35;22.60;99.90
18335;DHT22;9293;49.524;10.964;2023-06-24T07:27:03;22.90;99.90
18335;DHT22;9293;49.524;10.964;2023-06-24T07:29:31;23.10;99.90
18335;DHT22;9293;49.524;10.964;2023-06-24T07:31:59;23.20;99.90
18335;DHT22;9293;49.524;10.964;2023-06-24T07:34:28;23.30;99.90
18335;DHT22;9293;49.524;10.964;2023-06-24T07:36:57;23.10;99.90
18335;DHT22;9293;49.524;10.964;2023-06-24T07:39:28;22.90;99.90
18335;DHT22;9293;49.524;10.964;2023-06-24T07:41:56;23.10;99.90
18335;DHT22;9293;49.524;10.964;2023-06-24T07:44:25;23.30;99.90
18335;DHT22;9293;49.524;10.964;2023-06-24T07:46:53;23.50;99.90
18335;DHT22;9293;49.524;10.964;2023-06-24T07:49:21;23.90;99.90
18335;DHT22;9293;49.524;10.964;2023-06-24T07:51:49;23.70;99.90
18335;DHT22;9293;49.524;10.964;2023-06-24T07:54:17;23.60;99.90
18335;DHT22;9293;49.524;10.964;2023-06-24T07:56:45;23.90;99.90
18335;DHT22;9293;49.524;10.964;2023-06-24T07:59:14;24.10;99.90
18335;DHT22;9293;49.524;10.964;2023-06-24T08:01:42;24.40;99.90
18335;DHT22;9293;49.524;10.964;2023-06-24T08:04:10;24.60;99.90
18335;DHT22;9293;49.524;10.964;2023-06-24T08:06:38;24.60;99.90
18335;DHT22;9293;49.524;10.964;2023-06-24T08:09:06;24.70;99.90
18335;DHT22;9293;49.524;10.964;2023-06-24T08:11:34;24.80;99.90
18335;DHT22;9293;49.524;10.964;2023-06-24T08:14:03;24.50;99.90
18335;DHT22;9293;49.524;10.964;2023-06-24T08:16:32;24.30;99.90
18335;DHT22;9293;49.524;10.964;2023-06-24T08:19:00;24.70;99.90
18335;DHT22;9293;49.524;10.964;2023-06-24T08:21:28;25.00;99.90
18335;DHT22;9293;49.524;10.964;2023-06-24T08:23:57;25.40;99.90
18335;DHT22;9293;49.524;10.964;2023-06-24T08:26:25;25.70;99.90
18335;DHT22;9293;49.524;10.964;2023-06-24T08:28:54;25.90;99.90
18335;DHT22;9293;49.524;10.964;2023-06-24T08:31:22;25.60;99.90
18335;DHT22;9293;49.524;10.964;2023-06-24T08:33:52;25.10;99.90
18335;DHT22;9293;49.524;10.964;2023-06-24T08:36:22;25.00;99.90
18335;DHT22;9293;49.524;10.964;2023-06-24T08:38:53;25.30;99.90
18335;DHT22;9293;49.524;10.964;2023-06-24T08:41:22;25.30;99.90
18335;DHT22;9293;49.524;10.964;2023-06-24T08:43:50;25.50;99.90
18335;DHT22;9293;49.524;10.964;2023-06-24T08:46:19;25.90;99.90
18335;DHT22;9293;49.524;10.964;2023-06-24T08:48:48;26.40;99.90
18335;DHT22;9293;49.524;10.964;2023-06-24T08:51:18;26.70;99.90
18335;DHT22;9293;49.524;10.964;2023-06-24T08:53:46;26.90;99.90
18335;DHT22;9293;49.524;10.964;2023-06-24T08:56:15;27.00;99.90
18335;DHT22;9293;49.524;10.964;2023-06-24T08:58:46;27.00;99.90
18335;DHT22;9293;49.524;10.964;2023-06-24T09:01:15;27.10;99.90
18335;DHT22;9293;49.524;10.964;2023-06-24T09:03:43;26.90;99.90
18335;DHT22;9293;49.524;10.964;2023-06-24T09:06:11;26.60;99.90
18335;DHT22;9293;49.524;10.964;2023-06-24T09:08:39;26.40;99.90
18335;DHT22;9293;49.524;10.964;2023-06-24T09:11:09;26.40;99.90
18335;DHT22;9293;49.524;10.964;2023-06-24T09:13:37;26.30;99.90
18335;DHT22;9293;49.524;10.964;2023-06-24T09:16:12;26.20;99.90
18335;DHT22;9293;49.524;10.964;2023-06-24T09:18:41;26.00;99.90
18335;DHT22;9293;49.524;10.964;2023-06-24T09:21:27;26.30;99.90
18335;DHT22;9293;49.524;10.964;2023-06-24T09:23:58;26.90;99.90
18335;DHT22;9293;49.524;10.964;2023-06-24T09:26:27;27.30;99.90
18335;DHT22;9293;49.524;10.964;2023-06-24T09:28:56;27.60;99.90
18335;DHT22;9293;49.524;10.964;2023-06-24T09:31:25;27.90;99.90
18335;DHT22;9293;49.524;10.964;2023-06-24T09:33:56;28.00;99.90
18335;DHT22;9293;49.524;10.964;2023-06-24T09:36:24;28.10;99.90
18335;DHT22;9293;49.524;10.964;2023-06-24T09:38:55;28.20;99.90
18335;DHT22;9293;49.524;10.964;2023-06-24T09:41:25;28.40;99.90
18335;DHT22;9293;49.524;10.964;2023-06-24T09:43:53;28.50;99.90
18335;DHT22;9293;49.524;10.964;2023-06-24T09:46:27;28.10;99.90
18335;DHT22;9293;49.524;10.964;2023-06-24T09:48:56;28.40;99.90
18335;DHT22;9293;49.524;10.964;2023-06-24T09:51:27;28.00;99.90
18335;DHT22;9293;49.524;10.964;2023-06-24T09:53:55;27.80;99.90
18335;DHT22;9293;49.524;10.964;2023-06-24T09:56:25;27.90;99.90
18335;DHT22;9293;49.524;10.964;2023-06-24T09:58:57;27.70;99.90
18335;DHT22;9293;49.524;10.964;2023-06-24T10:01:25;28.10;99.90
18335;DHT22;9293;49.524;10.964;2023-06-24T10:03:54;28.50;99.90
18335;DHT22;9293;49.524;10.964;2023-06-24T10:06:22;28.60;99.90
18335;DHT22;9293;49.524;10.964;2023-06-24T10:08:52;28.50;99.90
18335;DHT22;9293;49.524;10.964;2023-06-24T10:11:20;28.50;99.90
18335;DHT22;9293;49.524;10.964;2023-06-24T10:13:48;28.30;99.90
18335;DHT22;9293;49.524;10.964;2023-06-24T10:16:17;28.50;99.90
18335;DHT22;9293;49.524;10.964;2023-06-24T10:18:45;28.80;99.90
18335;DHT22;9293;49.524;10.964;2023-06-24T10:21:15;28.70;99.90
18335;DHT22;9293;49.524;10.964;2023-06-24T10:26:22;28.20;99.90
18335;DHT22;9293;49.524;10.964;2023-06-24T10:31:50;27.70;99.90
18335;DHT22;9293;49.524;10.964;2023-06-24T10:34:31;27.80;99.90
18335;DHT22;9293;49.524;10.964;2023-06-24T10:37:01;28.40;99.90
18335;DHT22;9293;49.524;10.964;2023-06-24T10:44:54;28.50;99.90
18335;DHT22;9293;49.524;10.964;2023-06-24T10:47:23;28.50;99.90
18335;DHT22;9293;49.524;10.964;2023-06-24T10:49:51;28.60;99.90
18335;DHT22;9293;49.524;10.964;2023-06-24T10:52:20;29.00;99.90
18335;DHT22;9293;49.524;10.964;2023-06-24T10:54:49;28.60;99.90
18335;DHT22;9293;49.524;10.964;2023-06-24T10:57:22;28.30;99.90
18335;DHT22;9293;49.524;10.964;2023-06-24T10:59:52;28.40;99.90
18335;DHT22;9293;49.524;10.964;2023-06-24T11:02:24;28.90;99.90
18335;DHT22;9293;49.524;10.964;2023-06-24T11:04:59;29.10;99.60
18335;DHT22;9293;49.524;10.964;2023-06-24T11:07:28;29.00;99.70
18335;DHT22;9293;49.524;10.964;2023-06-24T11:09:59;28.90;99.50
18335;DHT22;9293;49.524;10.964;2023-06-24T11:12:28;29.30;99.90
18335;DHT22;9293;49.524;10.964;2023-06-24T11:14:56;29.70;98.20
18335;DHT22;9293;49.524;10.964;2023-06-24T11:17:26;30.00;97.40
18335;DHT22;9293;49.524;10.964;2023-06-24T11:19:55;30.10;97.90
18335;DHT22;9293;49.524;10.964;2023-06-24T11:22:23;30.20;98.10
18335;DHT22;9293;49.524;10.964;2023-06-24T11:24:52;30.10;96.50
18335;DHT22;9293;49.524;10.964;2023-06-24T11:27:24;29.90;96.70
18335;DHT22;9293;49.524;10.964;2023-06-24T11:29:53;30.10;97.60
18335;DHT22;9293;49.524;10.964;2023-06-24T11:32:21;30.20;97.50
18335;DHT22;9293;49.524;10.964;2023-06-24T11:34:50;30.30;96.20
18335;DHT22;9293;49.524;10.964;2023-06-24T11:37:18;30.10;96.40
18335;DHT22;9293;49.524;10.964;2023-06-24T11:39:59;30.10;96.30
18335;DHT22;9293;49.524;10.964;2023-06-24T11:42:28;30.30;96.40
18335;DHT22;9293;49.524;10.964;2023-06-24T11:44:59;30.40;95.90
18335;DHT22;9293;49.524;10.964;2023-06-24T11:47:28;29.50;96.20
18335;DHT22;9293;49.524;10.964;2023-06-24T11:49:58;29.20;97.70
18335;DHT22;9293;49.524;10.964;2023-06-24T11:52:41;28.90;96.20
18335;DHT22;9293;49.524;10.964;2023-06-24T11:55:18;28.60;96.80
18335;DHT22;9293;49.524;10.964;2023-06-24T11:58:04;28.60;97.60
18335;DHT22;9293;49.524;10.964;2023-06-24T12:00:35;28.90;96.20
18335;DHT22;9293;49.524;10.964;2023-06-24T12:03:07;29.10;96.70
18335;DHT22;9293;49.524;10.964;2023-06-24T12:05:38;29.10;96.10
18335;DHT22;9293;49.524;10.964;2023-06-24T12:08:09;29.00;96.10
18335;DHT22;9293;49.524;10.964;2023-06-24T12:10:38;29.30;97.40
18335;DHT22;9293;49.524;10.964;2023-06-24T12:13:06;29.80;95.90
18335;DHT22;9293;49.524;10.964;2023-06-24T12:15:36;29.90;95.40
18335;DHT22;9293;49.524;10.964;2023-06-24T12:18:04;30.00;96.20
18335;DHT22;9293;49.524;10.964;2023-06-24T12:20:35;30.10;94.90
18335;DHT22;9293;49.524;10.964;2023-06-24T12:23:08;30.00;94.70
18335;DHT22;9293;49.524;10.964;2023-06-24T12:25:36;30.00;94.80
18335;DHT22;9293;49.524;10.964;2023-06-24T12:28:04;30.50;96.20
18335;DHT22;9293;49.524;10.964;2023-06-24T12:30:32;31.20;94.50
18335;DHT22;9293;49.524;10.964;2023-06-24T12:33:01;31.40;93.70
18335;DHT22;9293;49.524;10.964;2023-06-24T12:35:32;31.20;93.70
18335;DHT22;9293;49.524;10.964;2023-06-24T12:38:00;31.00;94.70
18335;DHT22;9293;49.524;10.964;2023-06-24T12:40:28;31.10;94.80
18335;DHT22;9293;49.524;10.964;2023-06-24T12:42:59;31.10;94.10
18335;DHT22;9293;49.524;10.964;2023-06-24T12:45:28;31.10;94.20
18335;DHT22;9293;49.524;10.964;2023-06-24T12:47:56;31.20;94.00
18335;DHT22;9293;49.524;10.964;2023-06-24T12:50:24;30.90;94.60
18335;DHT22;9293;49.524;10.964;2023-06-24T12:52:52;31.20;94.70
18335;DHT22;9293;49.524;10.964;2023-06-24T12:55:20;31.60;92.60
18335;DHT22;9293;49.524;10.964;2023-06-24T12:57:48;31.60;92.80
18335;DHT22;9293;49.524;10.964;2023-06-24T13:00:19;31.20;93.10
18335;DHT22;9293;49.524;10.964;2023-06-24T13:02:47;31.40;92.30
18335;DHT22;9293;49.524;10.964;2023-06-24T13:05:16;31.40;92.20
18335;DHT22;9293;49.524;10.964;2023-06-24T13:07:44;31.70;90.70
18335;DHT22;9293;49.524;10.964;2023-06-24T13:10:13;31.70;90.30
18335;DHT22;9293;49.524;10.964;2023-06-24T13:12:41;31.60;90.00
18335;DHT22;9293;49.524;10.964;2023-06-24T13:15:09;31.80;90.90
18335;DHT22;9293;49.524;10.964;2023-06-24T13:17:38;32.20;87.10
18335;DHT22;9293;49.524;10.964;2023-06-24T13:20:06;32.40;87.20
18335;DHT22;9293;49.524;10.964;2023-06-24T13:22:34;32.50;88.40
18335;DHT22;9293;49.524;10.964;2023-06-24T13:25:03;31.90;90.10
18335;DHT22;9293;49.524;10.964;2023-06-24T13:27:31;31.30;90.80
18335;DHT22;9293;49.524;10.964;2023-06-24T13:29:59;30.90;91.10
18335;DHT22;9293;49.524;10.964;2023-06-24T13:32:27;30.70;90.80
18335;DHT22;9293;49.524;10.964;2023-06-24T13:34:56;29.90;91.60
18335;DHT22;9293;49.524;10.964;2023-06-24T13:37:24;29.60;91.90
18335;DHT22;9293;49.524;10.964;2023-06-24T13:39:53;28.70;92.40
18335;DHT22;9293;49.524;10.964;2023-06-24T13:42:21;28.60;92.10
18335;DHT22;9293;49.524;10.964;2023-06-24T13:44:49;29.00;92.20
18335;DHT22;9293;49.524;10.964;2023-06-24T13:47:17;29.50;92.80
18335;DHT22;9293;49.524;10.964;2023-06-24T13:49:45;29.50;91.70
18335;DHT22;9293;49.524;10.964;2023-06-24T13:52:13;29.00;91.50
18335;DHT22;9293;49.524;10.964;2023-06-24T13:54:42;28.30;92.40
18335;DHT22;9293;49.524;10.964;2023-06-24T13:57:10;27.90;93.10
18335;DHT22;9293;49.524;10.964;2023-06-24T13:59:38;27.80;92.20
18335;DHT22;9293;49.524;10.964;2023-06-24T14:02:07;27.70;93.20
18335;DHT22;9293;49.524;10.964;2023-06-24T14:04:37;27.40;93.70
18335;DHT22;9293;49.524;10.964;2023-06-24T14:07:05;27.90;93.60
18335;DHT22;9293;49.524;10.964;2023-06-24T14:09:34;28.50;92.70
18335;DHT22;9293;49.524;10.964;2023-06-24T14:12:02;29.00;92.50
18335;DHT22;9293;49.524;10.964;2023-06-24T14:14:31;29.30;91.60
18335;DHT22;9293;49.524;10.964;2023-06-24T14:16:59;29.70;91.60
18335;DHT22;9293;49.524;10.964;2023-06-24T14:19:28;30.00;91.30
18335;DHT22;9293;49.524;10.964;2023-06-24T14:21:56;29.80;90.00
18335;DHT22;9293;49.524;10.964;2023-06-24T14:24:25;29.80;90.50
18335;DHT22;9293;49.524;10.964;2023-06-24T14:26:53;29.60;90.40
18335;DHT22;9293;49.524;10.964;2023-06-24T14:29:22;29.30;89.60
18335;DHT22;9293;49.524;10.964;2023-06-24T14:31:52;28.70;89.70
18335;DHT22;9293;49.524;10.964;2023-06-24T14:34:21;28.30;91.70
18335;DHT22;9293;49.524;10.964;2023-06-24T14:36:49;28.60;91.10
18335;DHT22;9293;49.524;10.964;2023-06-24T14:39:20;29.00;91.20
18335;DHT22;9293;49.524;10.964;2023-06-24T14:41:48;29.40;90.90
18335;DHT22;9293;49.524;10.964;2023-06-24T14:44:16;29.20;90.70
18335;DHT22;9293;49.524;10.964;2023-06-24T14:46:44;29.50;89.70
18335;DHT22;9293;49.524;10.964;2023-06-24T14:49:12;29.60;90.10
18335;DHT22;9293;49.524;10.964;2023-06-24T14:51:41;29.40;90.00
18335;DHT22;9293;49.524;10.964;2023-06-24T14:54:09;29.60;90.30
18335;DHT22;9293;49.524;10.964;2023-06-24T14:56:37;29.70;87.80
18335;DHT22;9293;49.524;10.964;2023-06-24T14:59:05;29.70;88.50
18335;DHT22;9293;49.524;10.964;2023-06-24T15:01:33;30.00;88.10
18335;DHT22;9293;49.524;10.964;2023-06-24T15:04:02;30.30;87.30
18335;DHT22;9293;49.524;10.964;2023-06-24T15:06:37;30.40;84.70
18335;DHT22;9293;49.524;10.964;2023-06-24T15:09:05;30.40;86.20
18335;DHT22;9293;49.524;10.964;2023-06-24T15:11:33;30.50;84.00
18335;DHT22;9293;49.524;10.964;2023-06-24T15:14:02;30.30;84.80
18335;DHT22;9293;49.524;10.964;2023-06-24T15:16:34;29.80;84.10
18335;DHT22;9293;49.524;10.964;2023-06-24T15:19:04;29.10;83.70
18335;DHT22;9293;49.524;10.964;2023-06-24T15:21:34;28.70;84.80
18335;DHT22;9293;49.524;10.964;2023-06-24T15:24:15;28.70;82.60
18335;DHT22;9293;49.524;10.964;2023-06-24T15:26:43;28.90;83.10
18335;DHT22;9293;49.524;10.964;2023-06-24T15:29:15;28.90;81.80
18335;DHT22;9293;49.524;10.964;2023-06-24T15:31:45;29.00;83.60
18335;DHT22;9293;49.524;10.964;2023-06-24T15:34:23;29.30;80.20
18335;DHT22;9293;49.524;10.964;2023-06-24T15:36:53;29.30;80.20
18335;DHT22;9293;49.524;10.964;2023-06-24T15:39:23;29.70;80.70
18335;DHT22;9293;49.524;10.964;2023-06-24T15:41:59;30.00;80.20
18335;DHT22;9293;49.524;10.964;2023-06-24T15:44:27;29.90;80.70
18335;DHT22;9293;49.524;10.964;2023-06-24T15:46:57;29.60;82.30
18335;DHT22;9293;49.524;10.964;2023-06-24T15:49:26;29.80;83.00
18335;DHT22;9293;49.524;10.964;2023-06-24T15:51:54;29.80;80.80
18335;DHT22;9293;49.524;10.964;2023-06-24T15:54:24;29.90;81.00
18335;DHT22;9293;49.524;10.964;2023-06-24T15:56:52;29.80;79.90
18335;DHT22;9293;49.524;10.964;2023-06-24T15:59:20;29.60;78.90
18335;DHT22;9293;49.524;10.964;2023-06-24T16:01:49;29.30;80.30
18335;DHT22;9293;49.524;10.964;2023-06-24T16:04:17;29.20;81.00